Orlando, Florida
Current Conditions -  °F | °C
As of 12:53 PM on Thursday 29 Jan 2015 (Local Time) from KORL Reporting Station
Clear Clear  
Wind Chill: 21°   Ceiling: Unl
Heat Index: 21°   Visibility: 10mi
Dew Point:   Wind: 6mph
Humidity: 45%   Direction: 70°ENE
Pressure: 30.28"   Gusts: NA
Location:  28.54°N, 81.38°W
Report Text: KORL 291753Z 07005KT 10SM CLR 21/08 A3028 RMK AO2 SLP257 T02060083 10206 20067 58018
Loading
Personal Weather Stations






























Interactive Weather Map New forecast layout! Learn more

10-Day Weather Forecast

Advertisements
Track Severe Weather on mobile